createdAt,value
2019-05-18T00:01:58.209Z,9.37
2019-05-18T00:04:48.589Z,9.07
2019-05-18T00:07:31.791Z,9.17
2019-05-18T00:10:22.175Z,8.97
2019-05-18T00:13:05.405Z,8.93
2019-05-18T00:15:55.731Z,9.23
2019-05-18T00:18:38.909Z,9.63
2019-05-18T00:21:29.303Z,9.13
2019-05-18T00:24:12.669Z,9.53
2019-05-18T00:27:03.043Z,9.30
2019-05-18T00:29:46.220Z,9.53
2019-05-18T00:32:36.585Z,9.73
2019-05-18T00:35:19.409Z,9.73
2019-05-18T00:38:09.761Z,10.23
2019-05-18T00:40:53.328Z,8.87
2019-05-18T00:43:43.717Z,8.93
2019-05-18T00:46:27.077Z,9.87
2019-05-18T00:49:09.997Z,9.33
2019-05-18T00:52:00.331Z,9.37
2019-05-18T00:54:43.198Z,9.50
2019-05-18T00:57:33.566Z,9.77
2019-05-18T01:00:16.323Z,10.07
2019-05-18T01:03:06.666Z,9.87
2019-05-18T01:05:50.010Z,9.20
2019-05-18T01:08:40.358Z,9.60
2019-05-18T01:11:23.834Z,9.30
2019-05-18T01:14:06.428Z,10.17
2019-05-18T01:16:56.779Z,9.47
2019-05-18T01:19:40.028Z,9.57
2019-05-18T01:22:30.351Z,9.30
2019-05-18T01:25:13.636Z,9.37
2019-05-18T01:28:03.966Z,9.70
2019-05-18T01:30:47.091Z,9.53
2019-05-18T01:33:30.560Z,9.50
2019-05-18T01:36:20.942Z,9.80
2019-05-18T01:39:03.995Z,11.73
2019-05-18T01:41:54.322Z,12.13
2019-05-18T01:44:57.161Z,11.63
2019-05-18T01:47:47.478Z,12.00
2019-05-18T01:50:30.776Z,12.63
2019-05-18T01:53:21.107Z,11.30
2019-05-18T01:56:03.949Z,11.10
2019-05-18T01:58:54.280Z,12.23
2019-05-18T02:01:37.507Z,11.83
2019-05-18T02:04:27.909Z,11.77
2019-05-18T02:07:11.276Z,11.50
2019-05-18T02:10:01.653Z,12.73
2019-05-18T02:12:45.098Z,12.13
2019-05-18T02:15:35.465Z,13.50
2019-05-18T02:18:28.627Z,12.87
2019-05-18T02:21:10.200Z,12.73
2019-05-18T02:23:53.108Z,13.10
2019-05-18T02:26:36.419Z,12.90
2019-05-18T02:29:26.773Z,13.60
2019-05-18T02:32:10.070Z,12.83
2019-05-18T02:35:00.385Z,14.03
2019-05-18T02:37:43.483Z,14.53
2019-05-18T02:40:33.821Z,13.80
2019-05-18T02:43:17.396Z,13.17
2019-05-18T02:46:07.724Z,13.17
2019-05-18T02:48:51.259Z,12.97
2019-05-18T02:51:41.595Z,12.83
2019-05-18T02:54:23.431Z,12.53
2019-05-18T02:57:05.339Z,13.67
2019-05-18T02:59:48.770Z,12.93
2019-05-18T03:02:39.104Z,12.50
2019-05-18T03:05:21.825Z,12.57
2019-05-18T03:08:12.180Z,11.60
2019-05-18T03:10:55.635Z,13.13
2019-05-18T03:13:46.014Z,12.40
2019-05-18T03:16:29.213Z,14.13
2019-05-18T03:19:19.583Z,13.27
2019-05-18T03:22:02.040Z,12.63
2019-05-18T03:24:52.451Z,12.50
2019-05-18T03:27:35.881Z,12.27
2019-05-18T03:30:26.258Z,12.00
2019-05-18T03:33:16.603Z,11.60
2019-05-18T03:35:59.272Z,12.10
2019-05-18T03:38:49.622Z,12.37
2019-05-18T03:41:32.205Z,11.20
2019-05-18T03:44:22.571Z,11.93
2019-05-18T03:47:05.313Z,11.10
2019-05-18T03:49:55.655Z,11.47
2019-05-18T03:52:39.059Z,11.20
2019-05-18T03:55:29.404Z,11.93
2019-05-18T03:58:12.531Z,11.53
2019-05-18T04:01:03.058Z,11.43
2019-05-18T04:03:53.480Z,11.20
2019-05-18T04:06:36.609Z,11.40
2019-05-18T04:09:26.924Z,10.77
2019-05-18T04:12:10.138Z,10.70
2019-05-18T04:14:52.783Z,10.00
2019-05-18T04:17:43.122Z,10.90
2019-05-18T04:20:26.228Z,10.97
2019-05-18T04:23:16.542Z,11.20
2019-05-18T04:25:59.865Z,10.57
2019-05-18T04:28:50.180Z,10.70
2019-05-18T04:31:33.624Z,10.40
2019-05-18T04:34:23.973Z,10.57
2019-05-18T04:37:07.627Z,10.57
2019-05-18T04:39:57.942Z,10.13
2019-05-18T04:42:48.301Z,10.33
2019-05-18T04:45:29.877Z,10.40
2019-05-18T04:48:20.203Z,10.40
2019-05-18T04:51:03.066Z,10.17
2019-05-18T04:54:12.418Z,9.97
2019-05-18T04:56:55.821Z,10.30
2019-05-18T04:59:46.169Z,9.97
2019-05-18T05:02:29.627Z,10.23
2019-05-18T05:05:19.983Z,10.43
2019-05-18T05:08:03.281Z,10.20
2019-05-18T05:10:46.529Z,10.70
2019-05-18T05:13:36.929Z,10.53
2019-05-18T05:16:19.766Z,10.53
2019-05-18T05:19:10.133Z,10.40
2019-05-18T05:21:53.253Z,10.33
2019-05-18T05:24:43.628Z,10.97
2019-05-18T05:27:46.861Z,10.63
2019-05-18T05:30:38.034Z,10.43
2019-05-18T05:33:28.535Z,10.67
2019-05-18T05:36:11.504Z,10.90
2019-05-18T05:39:01.870Z,10.37
2019-05-18T05:41:45.327Z,10.70
2019-05-18T05:44:35.738Z,10.57
2019-05-18T05:47:18.391Z,10.83
2019-05-18T05:53:45.181Z,10.37
2019-05-18T05:56:27.817Z,10.73
2019-05-18T05:59:18.220Z,10.23
2019-05-18T06:02:00.840Z,10.17
2019-05-18T06:04:51.217Z,10.20
2019-05-18T06:07:34.294Z,9.83
2019-05-18T06:10:24.671Z,9.93
2019-05-18T06:13:07.415Z,9.53
2019-05-18T06:15:57.795Z,10.40
2019-05-18T06:18:40.355Z,10.03
2019-05-18T06:21:30.782Z,10.00
2019-05-18T06:24:21.202Z,9.53
2019-05-18T06:27:11.582Z,9.73
2019-05-18T06:30:01.955Z,9.33
2019-05-18T06:32:44.921Z,9.60
2019-05-18T06:35:35.267Z,9.53
2019-05-18T06:38:38.523Z,9.80
2019-05-18T06:41:28.912Z,8.80
2019-05-18T06:44:11.744Z,9.40
2019-05-18T06:47:02.151Z,8.83
2019-05-18T06:49:44.788Z,8.73
2019-05-18T06:52:35.141Z,8.60
2019-05-18T06:55:17.928Z,8.20
2019-05-18T06:58:08.414Z,8.07
2019-05-18T07:00:51.137Z,7.73
2019-05-18T07:03:44.949Z,7.50
2019-05-18T07:06:45.810Z,7.40
2019-05-18T07:09:36.165Z,7.50
2019-05-18T07:12:18.951Z,7.23
2019-05-18T07:18:37.777Z,7.10
2019-05-18T07:21:28.102Z,7.17
2019-05-18T07:24:11.257Z,6.60
2019-05-18T07:26:54.217Z,6.93
2019-05-18T07:29:44.590Z,6.77
2019-05-18T07:32:27.084Z,5.63
2019-05-18T07:35:17.743Z,6.40
2019-05-18T07:38:00.614Z,9.40
2019-05-18T07:40:50.978Z,8.70
2019-05-18T07:43:33.533Z,6.47
2019-05-18T07:46:23.908Z,6.57
2019-05-18T07:49:06.957Z,6.57
2019-05-18T07:51:57.364Z,6.70
2019-05-18T07:54:40.540Z,6.00
2019-05-18T07:57:30.888Z,6.73
2019-05-18T08:00:14.467Z,5.47
2019-05-18T08:03:04.844Z,5.17
2019-05-18T08:05:47.998Z,5.60
2019-05-18T08:08:38.360Z,5.37
2019-05-18T08:11:21.009Z,5.40
2019-05-18T08:14:11.344Z,5.50
2019-05-18T08:16:53.938Z,5.17
2019-05-18T08:19:44.208Z,5.23
2019-05-18T08:22:27.721Z,5.40
2019-05-18T08:25:18.045Z,5.33
2019-05-18T08:28:00.717Z,5.30
2019-05-18T08:30:51.049Z,5.40
2019-05-18T08:33:33.824Z,5.30
2019-05-18T08:36:24.172Z,5.13
2019-05-18T08:39:26.611Z,4.83
2019-05-18T08:42:16.961Z,4.57
2019-05-18T08:45:00.146Z,4.60
2019-05-18T08:47:50.487Z,4.53
2019-05-18T08:50:33.808Z,4.27
2019-05-18T08:53:24.274Z,4.13
2019-05-18T08:56:07.655Z,4.80
2019-05-18T08:58:58.009Z,4.47
2019-05-18T09:01:41.169Z,4.07
2019-05-18T09:04:31.713Z,4.47
2019-05-18T09:07:15.026Z,5.30
2019-05-18T09:10:05.815Z,5.07
2019-05-18T09:12:49.017Z,4.67
2019-05-18T09:15:39.438Z,4.87
2019-05-18T09:18:43.821Z,4.47
2019-05-18T09:21:34.231Z,4.00
2019-05-18T09:24:17.672Z,4.30
2019-05-18T09:27:08.058Z,4.63
2019-05-18T09:29:51.102Z,4.10
2019-05-18T09:32:41.441Z,3.93
2019-05-18T09:35:24.159Z,4.07
2019-05-18T09:38:14.645Z,3.60
2019-05-18T09:40:57.905Z,3.40
2019-05-18T09:43:47.630Z,3.20
2019-05-18T09:46:29.655Z,2.50
2019-05-18T09:49:12.520Z,2.93
2019-05-18T09:52:02.937Z,2.70
2019-05-18T09:54:46.036Z,3.17
2019-05-18T09:57:36.409Z,3.00
2019-05-18T10:00:21.281Z,3.20
2019-05-18T10:06:31.384Z,2.90
2019-05-18T10:09:13.990Z,2.50
2019-05-18T10:12:04.362Z,3.23
2019-05-18T10:14:47.417Z,2.70
2019-05-18T10:17:37.811Z,3.13
2019-05-18T10:20:20.829Z,3.10
2019-05-18T10:23:13.557Z,3.40
2019-05-18T10:26:15.485Z,3.60
2019-05-18T10:29:05.907Z,3.90
2019-05-18T10:31:48.535Z,3.50
2019-05-18T10:34:38.885Z,2.83
2019-05-18T10:37:21.525Z,3.43
2019-05-18T10:40:32.384Z,3.67
2019-05-18T10:43:15.472Z,3.60
2019-05-18T10:46:05.878Z,3.40
2019-05-18T10:48:49.335Z,3.30
2019-05-18T10:51:39.735Z,3.03
2019-05-18T10:54:23.319Z,2.70
2019-05-18T10:57:13.652Z,2.40
2019-05-18T10:59:56.340Z,2.50
2019-05-18T11:02:46.751Z,2.57
2019-05-18T11:05:29.568Z,2.70
2019-05-18T11:08:19.898Z,2.20
2019-05-18T11:11:22.434Z,2.33
2019-05-18T11:14:12.770Z,2.97
2019-05-18T11:16:56.140Z,2.70
2019-05-18T11:19:38.886Z,2.63
2019-05-18T11:22:29.259Z,2.70
2019-05-18T11:25:12.250Z,2.90
2019-05-18T11:28:02.638Z,3.00
2019-05-18T11:31:05.262Z,2.63
2019-05-18T11:33:55.601Z,2.40
2019-05-18T11:36:38.252Z,2.53
2019-05-18T11:39:28.601Z,2.57
2019-05-18T11:42:18.957Z,2.03
2019-05-18T11:45:01.712Z,1.90
2019-05-18T11:47:52.080Z,1.90
2019-05-18T11:50:35.206Z,2.00
2019-05-18T11:53:25.577Z,2.47
2019-05-18T11:56:08.245Z,2.13
2019-05-18T11:58:58.601Z,2.23
2019-05-18T12:02:01.450Z,1.70
2019-05-18T12:04:51.853Z,1.83
2019-05-18T12:07:42.213Z,1.40
2019-05-18T12:10:24.955Z,1.50
2019-05-18T12:13:15.304Z,1.60
2019-05-18T12:15:58.194Z,1.80
2019-05-18T12:18:48.536Z,1.80
2019-05-18T12:21:32.129Z,1.80
2019-05-18T12:24:22.504Z,1.90
2019-05-18T12:27:05.814Z,2.30
2019-05-18T12:29:56.167Z,2.10
2019-05-18T12:32:38.801Z,2.10
2019-05-18T12:35:29.232Z,2.23
2019-05-18T12:38:12.806Z,2.07
2019-05-18T12:44:04.795Z,2.33
2019-05-18T12:46:48.084Z,2.17
2019-05-18T12:49:38.499Z,2.23
2019-05-18T12:52:21.448Z,2.10
2019-05-18T12:58:20.481Z,2.10
2019-05-18T13:01:10.867Z,2.10
2019-05-18T13:03:53.487Z,1.87
2019-05-18T13:06:43.857Z,2.30
2019-05-18T13:09:46.335Z,2.13
2019-05-18T13:12:36.665Z,1.80
2019-05-18T13:15:27.158Z,2.20
2019-05-18T13:18:17.505Z,2.10
2019-05-18T13:21:00.326Z,2.00
2019-05-18T13:23:50.733Z,2.10
2019-05-18T13:26:33.311Z,2.23
2019-05-18T13:29:23.721Z,2.07
2019-05-18T13:32:06.394Z,2.30
2019-05-18T13:34:56.766Z,1.80
2019-05-18T13:37:40.081Z,1.90
2019-05-18T13:43:38.864Z,2.30
2019-05-18T13:46:29.215Z,2.00
2019-05-18T13:49:31.838Z,2.30
2019-05-18T13:52:22.186Z,2.40
2019-05-18T13:55:05.258Z,2.10
2019-05-18T13:57:55.752Z,2.20
2019-05-18T14:00:38.436Z,2.13
2019-05-18T14:03:28.792Z,2.00
2019-05-18T14:06:11.721Z,1.93
2019-05-18T14:09:02.085Z,2.10
2019-05-18T14:11:44.914Z,2.30
2019-05-18T14:17:43.218Z,1.93
2019-05-18T14:20:33.572Z,2.10
2019-05-18T14:23:16.606Z,2.00
2019-05-18T14:26:06.954Z,1.90
2019-05-18T14:28:50.256Z,2.30
2019-05-18T14:31:40.610Z,1.90
2019-05-18T14:34:23.807Z,2.30
2019-05-18T14:40:16.825Z,2.53
2019-05-18T14:43:00.036Z,2.50
2019-05-18T14:45:50.408Z,2.13
2019-05-18T14:48:40.772Z,2.70
2019-05-18T14:51:23.976Z,2.20
2019-05-18T14:54:14.308Z,2.30
2019-05-18T14:56:56.903Z,2.50
2019-05-18T14:59:47.257Z,2.37
2019-05-18T15:02:30.718Z,2.33
2019-05-18T15:05:21.052Z,2.37
2019-05-18T15:08:03.742Z,2.60
2019-05-18T15:13:56.088Z,2.60
2019-05-18T15:16:46.420Z,2.03
2019-05-18T15:19:29.281Z,2.00
2019-05-18T15:22:19.655Z,2.13
2019-05-18T15:25:03.470Z,2.23
2019-05-18T15:27:53.791Z,2.40
2019-05-18T15:30:36.936Z,2.20
2019-05-18T15:33:27.294Z,2.20
2019-05-18T15:36:10.052Z,2.30
2019-05-18T15:39:00.436Z,2.10
2019-05-18T15:41:42.987Z,2.00
2019-05-18T15:44:33.365Z,2.27
2019-05-18T15:47:16.904Z,2.13
2019-05-18T15:53:35.823Z,2.27
2019-05-18T15:56:26.214Z,2.00
2019-05-18T15:59:09.760Z,1.70
2019-05-18T16:02:00.113Z,1.90
2019-05-18T16:04:43.458Z,2.10
2019-05-18T16:07:33.797Z,2.03
2019-05-18T16:10:17.388Z,2.40
2019-05-18T16:13:08.673Z,2.20
2019-05-18T16:15:51.405Z,1.90
2019-05-18T16:18:41.762Z,2.80
2019-05-18T16:21:25.110Z,2.10
2019-05-18T16:24:15.488Z,2.07
2019-05-18T16:27:05.908Z,2.50
2019-05-18T16:29:48.717Z,2.40
2019-05-18T16:32:39.106Z,2.60
2019-05-18T16:35:22.268Z,2.50
2019-05-18T16:38:12.632Z,2.43
2019-05-18T16:40:55.220Z,2.40
2019-05-18T16:43:45.609Z,2.60
2019-05-18T16:46:28.932Z,2.50
2019-05-18T16:49:19.264Z,1.80
2019-05-18T16:52:02.034Z,1.77
2019-05-18T16:54:52.353Z,1.90
2019-05-18T16:57:35.120Z,1.80
2019-05-18T17:00:25.694Z,1.50
2019-05-18T17:03:08.413Z,1.70
2019-05-18T17:05:58.752Z,1.80
2019-05-18T17:09:01.215Z,1.80
2019-05-18T17:11:51.621Z,1.87
2019-05-18T17:14:35.209Z,1.80
2019-05-18T17:17:25.553Z,2.43
2019-05-18T17:20:08.436Z,2.80
2019-05-18T17:22:58.788Z,2.20
2019-05-18T17:25:41.946Z,2.20
2019-05-18T17:28:24.609Z,2.00
2019-05-18T17:31:14.975Z,2.10
2019-05-18T17:33:58.297Z,2.60
2019-05-18T17:36:52.579Z,2.23
2019-05-18T17:39:52.935Z,2.30
2019-05-18T17:42:43.324Z,2.50
2019-05-18T17:45:26.246Z,1.93
2019-05-18T17:48:16.578Z,2.27
2019-05-18T17:50:58.156Z,2.43
2019-05-18T17:53:41.067Z,2.63
2019-05-18T17:56:31.448Z,2.90
2019-05-18T17:59:15.039Z,2.90
2019-05-18T18:02:05.395Z,2.70
2019-05-18T18:04:48.415Z,2.77
2019-05-18T18:07:38.753Z,3.10
2019-05-18T18:10:41.270Z,3.30
2019-05-18T18:13:31.615Z,3.27
2019-05-18T18:16:14.592Z,3.27
2019-05-18T18:19:04.979Z,4.17
2019-05-18T18:22:08.146Z,4.00
2019-05-18T18:24:58.497Z,3.67
2019-05-18T18:27:41.784Z,3.97
2019-05-18T18:30:32.129Z,4.03
2019-05-18T18:33:15.599Z,4.00
2019-05-18T18:36:05.971Z,3.33
2019-05-18T18:38:49.481Z,3.37
2019-05-18T18:41:39.833Z,3.33
2019-05-18T18:44:23.199Z,3.53
2019-05-18T18:47:13.549Z,3.47
2019-05-18T18:49:56.447Z,3.57
2019-05-18T18:52:46.787Z,3.93
2019-05-18T18:55:29.945Z,3.63
2019-05-18T18:58:20.328Z,3.90
2019-05-18T19:01:03.468Z,3.90
2019-05-18T19:03:53.848Z,4.10
2019-05-18T19:06:37.268Z,3.93
2019-05-18T19:09:27.622Z,4.17
2019-05-18T19:12:10.842Z,4.33
2019-05-18T19:15:01.201Z,5.20
2019-05-18T19:17:44.289Z,5.33
2019-05-18T19:20:34.661Z,5.60
2019-05-18T19:23:17.716Z,6.20
2019-05-18T19:26:08.026Z,5.50
2019-05-18T19:28:51.355Z,5.30
2019-05-18T19:31:41.723Z,6.27
2019-05-18T19:34:24.852Z,6.17
2019-05-18T19:37:15.211Z,6.23
2019-05-18T19:39:58.719Z,6.47
2019-05-18T19:42:49.088Z,6.43
2019-05-18T19:45:32.251Z,6.33
2019-05-18T19:48:22.593Z,6.23
2019-05-18T19:51:05.206Z,7.03
2019-05-18T19:53:55.590Z,6.80
2019-05-18T19:56:41.782Z,6.80
2019-05-18T19:59:30.890Z,8.00
2019-05-18T20:02:18.224Z,6.67
2019-05-18T20:05:08.672Z,6.97
2019-05-18T20:08:10.975Z,5.97
2019-05-18T20:11:01.393Z,6.20
2019-05-18T20:13:44.472Z,5.83
2019-05-18T20:16:34.900Z,5.83
2019-05-18T20:19:39.563Z,6.00
2019-05-18T20:22:30.219Z,5.77
2019-05-18T20:25:17.620Z,6.27
2019-05-18T20:28:01.142Z,5.33
2019-05-18T20:30:51.583Z,5.70
2019-05-18T20:33:34.857Z,6.00
2019-05-18T20:36:25.155Z,5.73
2019-05-18T20:39:08.470Z,5.97
2019-05-18T20:41:58.975Z,5.53
2019-05-18T20:45:02.050Z,6.33
2019-05-18T20:48:12.643Z,5.17
2019-05-18T20:50:55.357Z,5.83
2019-05-18T20:53:45.712Z,5.97
2019-05-18T20:56:29.017Z,6.43
2019-05-18T20:59:19.418Z,6.10
2019-05-18T21:02:02.781Z,5.73
2019-05-18T21:04:53.156Z,5.90
2019-05-18T21:07:35.773Z,5.97
2019-05-18T21:10:26.167Z,6.07
2019-05-18T21:13:09.694Z,5.20
2019-05-18T21:16:00.062Z,6.27
2019-05-18T21:18:42.526Z,5.93
2019-05-18T21:21:32.891Z,6.40
2019-05-18T21:24:16.429Z,6.43
2019-05-18T21:27:06.737Z,6.80
2019-05-18T21:29:49.860Z,6.17
2019-05-18T21:32:40.244Z,5.57
2019-05-18T21:35:23.606Z,6.07
2019-05-18T21:38:14.034Z,5.47
2019-05-18T21:40:57.431Z,5.60
2019-05-18T21:43:47.788Z,5.30
2019-05-18T21:46:30.600Z,5.40
2019-05-18T21:49:20.964Z,5.50
2019-05-18T21:52:04.437Z,7.50
2019-05-18T21:54:54.805Z,7.50
2019-05-18T21:57:45.151Z,8.73
2019-05-18T22:00:35.656Z,7.20
2019-05-18T22:03:18.573Z,6.73
2019-05-18T22:06:08.971Z,6.60
2019-05-18T22:08:51.525Z,6.53
2019-05-18T22:11:35.377Z,5.30
2019-05-18T22:14:38.863Z,6.07
2019-05-18T22:17:30.472Z,5.23
2019-05-18T22:20:20.813Z,5.10
2019-05-18T22:23:03.696Z,6.47
2019-05-18T22:25:56.862Z,7.37
2019-05-18T22:28:58.464Z,6.80
2019-05-18T22:31:41.217Z,7.03
2019-05-18T22:34:31.577Z,6.20
2019-05-18T22:37:14.737Z,6.57
2019-05-18T22:40:05.665Z,6.27
2019-05-18T22:42:48.765Z,6.67
2019-05-18T22:45:39.150Z,6.63
2019-05-18T22:48:21.660Z,6.87
2019-05-18T22:51:12.045Z,6.67
2019-05-18T22:53:54.552Z,6.87
2019-05-18T22:56:44.922Z,7.10
2019-05-18T22:59:28.292Z,7.13
2019-05-18T23:02:18.669Z,7.30
2019-05-18T23:05:02.291Z,6.83
2019-05-18T23:07:52.506Z,6.80
2019-05-18T23:10:35.737Z,8.00
2019-05-18T23:13:26.041Z,7.47
2019-05-18T23:16:08.707Z,7.87
2019-05-18T23:18:59.133Z,7.73
2019-05-18T23:21:42.406Z,7.90
2019-05-18T23:24:32.742Z,7.87
2019-05-18T23:27:16.108Z,7.70
2019-05-18T23:29:58.640Z,7.63
2019-05-18T23:32:50.658Z,7.50
2019-05-18T23:35:53.214Z,6.57
2019-05-18T23:38:43.568Z,7.40
2019-05-18T23:41:26.729Z,6.70
2019-05-18T23:44:17.112Z,7.27
2019-05-18T23:46:59.914Z,7.03
2019-05-18T23:49:31.217Z,7.57
2019-05-18T23:52:21.606Z,7.27
2019-05-18T23:55:04.620Z,8.03
2019-05-18T23:57:54.993Z,8.13
